sensor_id;sensor_type;location;lat;lon;timestamp;temperature;humidity
11221;DHT22;8517;53.546;10.104;2024-02-21T00:01:23;12.10;99.90
11221;DHT22;8517;53.546;10.104;2024-02-21T00:03:50;12.10;99.90
11221;DHT22;8517;53.546;10.104;2024-02-21T00:06:16;12.10;99.90
11221;DHT22;8517;53.546;10.104;2024-02-21T00:08:43;12.10;99.90
11221;DHT22;8517;53.546;10.104;2024-02-21T00:11:10;12.10;99.90
11221;DHT22;8517;53.546;10.104;2024-02-21T00:13:37;12.10;99.90
11221;DHT22;8517;53.546;10.104;2024-02-21T00:16:04;12.10;99.90
11221;DHT22;8517;53.546;10.104;2024-02-21T00:18:32;12.10;99.90
11221;DHT22;8517;53.546;10.104;2024-02-21T00:20:59;12.00;99.90
11221;DHT22;8517;53.546;10.104;2024-02-21T00:23:27;12.00;99.90
11221;DHT22;8517;53.546;10.104;2024-02-21T00:25:54;12.00;99.90
11221;DHT22;8517;53.546;10.104;2024-02-21T00:28:21;12.00;99.90
11221;DHT22;8517;53.546;10.104;2024-02-21T00:30:48;12.00;99.90
11221;DHT22;8517;53.546;10.104;2024-02-21T00:33:16;12.00;99.90
11221;DHT22;8517;53.546;10.104;2024-02-21T00:35:44;12.00;99.90
11221;DHT22;8517;53.546;10.104;2024-02-21T00:38:11;12.00;99.90
11221;DHT22;8517;53.546;10.104;2024-02-21T00:40:38;11.90;99.90
11221;DHT22;8517;53.546;10.104;2024-02-21T00:43:04;11.90;99.90
11221;DHT22;8517;53.546;10.104;2024-02-21T00:45:30;11.90;99.90
11221;DHT22;8517;53.546;10.104;2024-02-21T00:47:57;11.90;99.90
11221;DHT22;8517;53.546;10.104;2024-02-21T00:50:24;11.90;99.90
11221;DHT22;8517;53.546;10.104;2024-02-21T00:52:52;11.90;99.90
11221;DHT22;8517;53.546;10.104;2024-02-21T00:55:19;11.90;99.90
11221;DHT22;8517;53.546;10.104;2024-02-21T00:57:46;11.90;99.90
11221;DHT22;8517;53.546;10.104;2024-02-21T01:00:13;11.90;99.90
11221;DHT22;8517;53.546;10.104;2024-02-21T01:02:40;11.90;99.90
11221;DHT22;8517;53.546;10.104;2024-02-21T01:05:07;11.90;99.90
11221;DHT22;8517;53.546;10.104;2024-02-21T01:07:34;11.90;99.90
11221;DHT22;8517;53.546;10.104;2024-02-21T01:10:03;11.90;99.90
11221;DHT22;8517;53.546;10.104;2024-02-21T01:12:30;11.90;99.90
11221;DHT22;8517;53.546;10.104;2024-02-21T01:14:56;11.90;99.90
11221;DHT22;8517;53.546;10.104;2024-02-21T01:17:23;11.90;99.90
11221;DHT22;8517;53.546;10.104;2024-02-21T01:19:50;11.90;99.90
11221;DHT22;8517;53.546;10.104;2024-02-21T01:22:17;11.90;99.90
11221;DHT22;8517;53.546;10.104;2024-02-21T01:24:44;11.90;99.90
11221;DHT22;8517;53.546;10.104;2024-02-21T01:27:12;11.90;99.90
11221;DHT22;8517;53.546;10.104;2024-02-21T01:29:38;11.90;99.90
11221;DHT22;8517;53.546;10.104;2024-02-21T01:32:06;11.90;99.90
11221;DHT22;8517;53.546;10.104;2024-02-21T01:34:32;11.90;99.90
11221;DHT22;8517;53.546;10.104;2024-02-21T01:36:59;11.80;99.90
11221;DHT22;8517;53.546;10.104;2024-02-21T01:39:30;11.80;99.90
11221;DHT22;8517;53.546;10.104;2024-02-21T01:41:56;11.80;99.90
11221;DHT22;8517;53.546;10.104;2024-02-21T01:44:25;11.80;99.90
11221;DHT22;8517;53.546;10.104;2024-02-21T01:46:52;11.90;99.90
11221;DHT22;8517;53.546;10.104;2024-02-21T01:49:19;11.90;99.90
11221;DHT22;8517;53.546;10.104;2024-02-21T01:51:47;11.90;99.90
11221;DHT22;8517;53.546;10.104;2024-02-21T01:54:15;11.80;99.90
11221;DHT22;8517;53.546;10.104;2024-02-21T01:56:43;11.80;99.90
11221;DHT22;8517;53.546;10.104;2024-02-21T01:59:10;11.80;99.90
11221;DHT22;8517;53.546;10.104;2024-02-21T02:01:40;11.80;99.90
11221;DHT22;8517;53.546;10.104;2024-02-21T02:04:07;11.80;99.90
11221;DHT22;8517;53.546;10.104;2024-02-21T02:06:35;11.70;99.90
11221;DHT22;8517;53.546;10.104;2024-02-21T02:09:02;11.60;99.90
11221;DHT22;8517;53.546;10.104;2024-02-21T02:11:31;11.60;99.90
11221;DHT22;8517;53.546;10.104;2024-02-21T02:13:58;11.50;99.90
11221;DHT22;8517;53.546;10.104;2024-02-21T02:16:25;11.50;99.90
11221;DHT22;8517;53.546;10.104;2024-02-21T02:18:53;11.50;99.90
11221;DHT22;8517;53.546;10.104;2024-02-21T02:21:25;11.40;99.90
11221;DHT22;8517;53.546;10.104;2024-02-21T02:23:54;11.40;99.90
11221;DHT22;8517;53.546;10.104;2024-02-21T02:26:21;11.30;99.90
11221;DHT22;8517;53.546;10.104;2024-02-21T02:28:48;11.30;99.90
11221;DHT22;8517;53.546;10.104;2024-02-21T02:31:14;11.30;99.90
11221;DHT22;8517;53.546;10.104;2024-02-21T02:33:42;11.30;99.90
11221;DHT22;8517;53.546;10.104;2024-02-21T02:36:09;11.20;99.90
11221;DHT22;8517;53.546;10.104;2024-02-21T02:38:37;11.30;99.90
11221;DHT22;8517;53.546;10.104;2024-02-21T02:41:05;11.20;99.90
11221;DHT22;8517;53.546;10.104;2024-02-21T02:43:32;11.20;99.90
11221;DHT22;8517;53.546;10.104;2024-02-21T02:45:59;11.20;99.90
11221;DHT22;8517;53.546;10.104;2024-02-21T02:48:25;11.30;99.90
11221;DHT22;8517;53.546;10.104;2024-02-21T02:50:52;11.20;99.90
11221;DHT22;8517;53.546;10.104;2024-02-21T02:53:19;11.20;99.90
11221;DHT22;8517;53.546;10.104;2024-02-21T02:55:47;11.20;99.90
11221;DHT22;8517;53.546;10.104;2024-02-21T02:58:15;11.20;99.90
11221;DHT22;8517;53.546;10.104;2024-02-21T03:00:42;11.30;99.90
11221;DHT22;8517;53.546;10.104;2024-02-21T03:03:08;11.30;99.90
11221;DHT22;8517;53.546;10.104;2024-02-21T03:05:35;11.30;99.90
11221;DHT22;8517;53.546;10.104;2024-02-21T03:08:02;11.40;99.90
11221;DHT22;8517;53.546;10.104;2024-02-21T03:10:32;11.40;99.90
11221;DHT22;8517;53.546;10.104;2024-02-21T03:12:59;11.40;99.90
11221;DHT22;8517;53.546;10.104;2024-02-21T03:15:27;11.50;99.90
11221;DHT22;8517;53.546;10.104;2024-02-21T03:17:54;11.50;99.90
11221;DHT22;8517;53.546;10.104;2024-02-21T03:20:22;11.50;99.90
11221;DHT22;8517;53.546;10.104;2024-02-21T03:22:48;11.60;99.90
11221;DHT22;8517;53.546;10.104;2024-02-21T03:25:15;11.60;99.90
11221;DHT22;8517;53.546;10.104;2024-02-21T03:27:42;11.70;99.90
11221;DHT22;8517;53.546;10.104;2024-02-21T03:30:09;11.70;99.90
11221;DHT22;8517;53.546;10.104;2024-02-21T03:33:03;11.70;99.90
11221;DHT22;8517;53.546;10.104;2024-02-21T03:35:42;11.80;99.90
11221;DHT22;8517;53.546;10.104;2024-02-21T03:38:08;11.80;99.90
11221;DHT22;8517;53.546;10.104;2024-02-21T03:40:35;11.80;99.90
11221;DHT22;8517;53.546;10.104;2024-02-21T03:43:02;11.90;99.90
11221;DHT22;8517;53.546;10.104;2024-02-21T03:45:29;11.80;99.90
11221;DHT22;8517;53.546;10.104;2024-02-21T03:47:55;11.90;99.90
11221;DHT22;8517;53.546;10.104;2024-02-21T03:50:24;11.90;99.90
11221;DHT22;8517;53.546;10.104;2024-02-21T03:52:51;11.90;99.90
11221;DHT22;8517;53.546;10.104;2024-02-21T03:55:18;11.90;99.90
11221;DHT22;8517;53.546;10.104;2024-02-21T03:57:45;11.90;99.90
11221;DHT22;8517;53.546;10.104;2024-02-21T04:00:12;11.90;99.90
11221;DHT22;8517;53.546;10.104;2024-02-21T04:02:39;11.90;99.90
11221;DHT22;8517;53.546;10.104;2024-02-21T04:05:06;12.00;99.90
11221;DHT22;8517;53.546;10.104;2024-02-21T04:07:37;12.00;99.90
11221;DHT22;8517;53.546;10.104;2024-02-21T04:10:05;12.00;99.90
11221;DHT22;8517;53.546;10.104;2024-02-21T04:12:32;12.00;99.90
11221;DHT22;8517;53.546;10.104;2024-02-21T04:14:58;12.00;99.90
11221;DHT22;8517;53.546;10.104;2024-02-21T04:17:25;11.90;99.90
11221;DHT22;8517;53.546;10.104;2024-02-21T04:20:01;11.90;99.90
11221;DHT22;8517;53.546;10.104;2024-02-21T04:22:30;11.80;99.90
11221;DHT22;8517;53.546;10.104;2024-02-21T04:24:59;11.70;99.90
11221;DHT22;8517;53.546;10.104;2024-02-21T04:27:26;11.70;99.90
11221;DHT22;8517;53.546;10.104;2024-02-21T04:29:53;11.70;99.90
11221;DHT22;8517;53.546;10.104;2024-02-21T04:32:20;11.60;99.90
11221;DHT22;8517;53.546;10.104;2024-02-21T04:34:47;11.60;99.90
11221;DHT22;8517;53.546;10.104;2024-02-21T04:37:46;11.50;99.90
11221;DHT22;8517;53.546;10.104;2024-02-21T04:40:34;11.50;99.90
11221;DHT22;8517;53.546;10.104;2024-02-21T04:43:01;11.50;99.90
11221;DHT22;8517;53.546;10.104;2024-02-21T04:45:28;11.50;99.90
11221;DHT22;8517;53.546;10.104;2024-02-21T04:47:55;11.50;99.90
11221;DHT22;8517;53.546;10.104;2024-02-21T04:50:21;11.50;99.90
11221;DHT22;8517;53.546;10.104;2024-02-21T04:52:48;11.50;99.90
11221;DHT22;8517;53.546;10.104;2024-02-21T04:55:15;11.50;99.90
11221;DHT22;8517;53.546;10.104;2024-02-21T04:57:43;11.40;99.90
11221;DHT22;8517;53.546;10.104;2024-02-21T05:00:11;11.40;99.90
11221;DHT22;8517;53.546;10.104;2024-02-21T05:02:38;11.40;99.90
11221;DHT22;8517;53.546;10.104;2024-02-21T05:05:05;11.40;99.90
11221;DHT22;8517;53.546;10.104;2024-02-21T05:07:31;11.30;99.90
11221;DHT22;8517;53.546;10.104;2024-02-21T05:09:58;11.30;99.90
11221;DHT22;8517;53.546;10.104;2024-02-21T05:12:25;11.30;99.90
11221;DHT22;8517;53.546;10.104;2024-02-21T05:14:53;11.30;99.90
11221;DHT22;8517;53.546;10.104;2024-02-21T05:17:20;11.20;99.90
11221;DHT22;8517;53.546;10.104;2024-02-21T05:19:46;11.20;99.90
11221;DHT22;8517;53.546;10.104;2024-02-21T05:22:13;11.20;99.90
11221;DHT22;8517;53.546;10.104;2024-02-21T05:24:40;11.20;99.90
11221;DHT22;8517;53.546;10.104;2024-02-21T05:27:07;11.20;99.90
11221;DHT22;8517;53.546;10.104;2024-02-21T05:29:34;11.10;99.90
11221;DHT22;8517;53.546;10.104;2024-02-21T05:32:02;11.10;99.90
11221;DHT22;8517;53.546;10.104;2024-02-21T05:34:35;11.10;99.90
11221;DHT22;8517;53.546;10.104;2024-02-21T05:37:01;11.10;99.90
11221;DHT22;8517;53.546;10.104;2024-02-21T05:39:30;11.00;99.90
11221;DHT22;8517;53.546;10.104;2024-02-21T05:42:01;11.10;99.90
11221;DHT22;8517;53.546;10.104;2024-02-21T05:44:28;11.10;99.90
11221;DHT22;8517;53.546;10.104;2024-02-21T05:46:55;11.10;99.90
11221;DHT22;8517;53.546;10.104;2024-02-21T05:49:23;11.10;99.90
11221;DHT22;8517;53.546;10.104;2024-02-21T05:51:50;11.10;99.90
11221;DHT22;8517;53.546;10.104;2024-02-21T05:54:16;11.10;99.90
11221;DHT22;8517;53.546;10.104;2024-02-21T05:56:46;11.10;99.90
11221;DHT22;8517;53.546;10.104;2024-02-21T05:59:13;11.10;99.90
11221;DHT22;8517;53.546;10.104;2024-02-21T06:01:40;11.00;99.90
11221;DHT22;8517;53.546;10.104;2024-02-21T06:04:07;11.10;99.90
11221;DHT22;8517;53.546;10.104;2024-02-21T06:06:35;11.10;99.90
11221;DHT22;8517;53.546;10.104;2024-02-21T06:09:02;11.10;99.90
11221;DHT22;8517;53.546;10.104;2024-02-21T06:11:29;11.10;99.90
11221;DHT22;8517;53.546;10.104;2024-02-21T06:13:56;11.10;99.90
11221;DHT22;8517;53.546;10.104;2024-02-21T06:16:22;11.10;99.90
11221;DHT22;8517;53.546;10.104;2024-02-21T06:18:49;11.10;99.90
11221;DHT22;8517;53.546;10.104;2024-02-21T06:21:16;11.10;99.90
11221;DHT22;8517;53.546;10.104;2024-02-21T06:26:44;11.10;99.90
11221;DHT22;8517;53.546;10.104;2024-02-21T06:29:11;11.10;99.90
11221;DHT22;8517;53.546;10.104;2024-02-21T06:31:39;11.10;99.90
11221;DHT22;8517;53.546;10.104;2024-02-21T06:34:06;11.10;99.90
11221;DHT22;8517;53.546;10.104;2024-02-21T06:36:33;11.10;99.90
11221;DHT22;8517;53.546;10.104;2024-02-21T06:38:59;11.10;99.90
11221;DHT22;8517;53.546;10.104;2024-02-21T06:41:26;11.10;99.90
11221;DHT22;8517;53.546;10.104;2024-02-21T06:43:55;11.20;99.90
11221;DHT22;8517;53.546;10.104;2024-02-21T06:46:23;11.10;99.90
11221;DHT22;8517;53.546;10.104;2024-02-21T06:48:50;11.10;99.90
11221;DHT22;8517;53.546;10.104;2024-02-21T06:51:17;11.20;99.90
11221;DHT22;8517;53.546;10.104;2024-02-21T06:53:44;11.20;99.90
11221;DHT22;8517;53.546;10.104;2024-02-21T06:56:11;11.10;99.90
11221;DHT22;8517;53.546;10.104;2024-02-21T06:58:37;11.10;99.90
11221;DHT22;8517;53.546;10.104;2024-02-21T07:01:06;11.20;99.90
11221;DHT22;8517;53.546;10.104;2024-02-21T07:03:41;11.20;99.90
11221;DHT22;8517;53.546;10.104;2024-02-21T07:06:08;11.20;99.90
11221;DHT22;8517;53.546;10.104;2024-02-21T07:08:35;11.20;99.90
11221;DHT22;8517;53.546;10.104;2024-02-21T07:11:03;11.20;99.90
11221;DHT22;8517;53.546;10.104;2024-02-21T07:13:30;11.20;99.90
11221;DHT22;8517;53.546;10.104;2024-02-21T07:15:56;11.20;99.90
11221;DHT22;8517;53.546;10.104;2024-02-21T07:18:25;11.20;99.90
11221;DHT22;8517;53.546;10.104;2024-02-21T07:20:52;11.20;99.90
11221;DHT22;8517;53.546;10.104;2024-02-21T07:23:18;11.20;99.90
11221;DHT22;8517;53.546;10.104;2024-02-21T07:25:45;11.20;99.90
11221;DHT22;8517;53.546;10.104;2024-02-21T07:28:12;11.20;99.90
11221;DHT22;8517;53.546;10.104;2024-02-21T07:30:41;11.20;99.90
11221;DHT22;8517;53.546;10.104;2024-02-21T07:33:08;11.30;99.90
11221;DHT22;8517;53.546;10.104;2024-02-21T07:35:36;11.30;99.90
11221;DHT22;8517;53.546;10.104;2024-02-21T07:38:04;11.30;99.90
11221;DHT22;8517;53.546;10.104;2024-02-21T07:40:31;11.30;99.90
11221;DHT22;8517;53.546;10.104;2024-02-21T07:42:58;11.30;99.90
11221;DHT22;8517;53.546;10.104;2024-02-21T07:45:25;11.30;99.90
11221;DHT22;8517;53.546;10.104;2024-02-21T07:47:52;11.30;99.90
11221;DHT22;8517;53.546;10.104;2024-02-21T07:50:19;11.30;99.90
11221;DHT22;8517;53.546;10.104;2024-02-21T07:52:47;11.30;99.90
11221;DHT22;8517;53.546;10.104;2024-02-21T07:55:14;11.30;99.90
11221;DHT22;8517;53.546;10.104;2024-02-21T07:57:41;11.30;99.90
11221;DHT22;8517;53.546;10.104;2024-02-21T08:00:08;11.30;99.90
11221;DHT22;8517;53.546;10.104;2024-02-21T08:02:40;11.30;99.90
11221;DHT22;8517;53.546;10.104;2024-02-21T08:05:09;11.30;99.90
11221;DHT22;8517;53.546;10.104;2024-02-21T08:07:37;11.40;99.90
11221;DHT22;8517;53.546;10.104;2024-02-21T08:10:07;11.40;99.90
11221;DHT22;8517;53.546;10.104;2024-02-21T08:12:34;11.40;99.90
11221;DHT22;8517;53.546;10.104;2024-02-21T08:15:01;11.40;99.90
11221;DHT22;8517;53.546;10.104;2024-02-21T08:17:29;11.40;99.90
11221;DHT22;8517;53.546;10.104;2024-02-21T08:20:01;11.40;99.90
11221;DHT22;8517;53.546;10.104;2024-02-21T08:22:30;11.40;99.90
11221;DHT22;8517;53.546;10.104;2024-02-21T08:24:57;11.40;99.90
11221;DHT22;8517;53.546;10.104;2024-02-21T08:27:26;11.40;99.90
11221;DHT22;8517;53.546;10.104;2024-02-21T08:29:52;11.40;99.90
11221;DHT22;8517;53.546;10.104;2024-02-21T08:32:19;11.40;99.90
11221;DHT22;8517;53.546;10.104;2024-02-21T08:35:09;11.40;99.90
11221;DHT22;8517;53.546;10.104;2024-02-21T08:37:36;11.40;99.90
11221;DHT22;8517;53.546;10.104;2024-02-21T08:40:04;11.40;99.90
11221;DHT22;8517;53.546;10.104;2024-02-21T08:42:35;11.40;99.90
11221;DHT22;8517;53.546;10.104;2024-02-21T08:45:03;11.50;99.90
11221;DHT22;8517;53.546;10.104;2024-02-21T08:47:30;11.50;99.90
11221;DHT22;8517;53.546;10.104;2024-02-21T08:49:57;11.50;99.90
11221;DHT22;8517;53.546;10.104;2024-02-21T08:52:24;11.50;99.90
11221;DHT22;8517;53.546;10.104;2024-02-21T08:54:50;11.50;99.90
11221;DHT22;8517;53.546;10.104;2024-02-21T08:57:19;11.50;99.90
11221;DHT22;8517;53.546;10.104;2024-02-21T08:59:47;11.60;99.90
11221;DHT22;8517;53.546;10.104;2024-02-21T09:02:14;11.60;99.90
11221;DHT22;8517;53.546;10.104;2024-02-21T09:04:42;11.60;99.90
11221;DHT22;8517;53.546;10.104;2024-02-21T09:07:09;11.60;99.90
11221;DHT22;8517;53.546;10.104;2024-02-21T09:09:36;11.60;99.90
11221;DHT22;8517;53.546;10.104;2024-02-21T09:12:07;11.50;99.90
11221;DHT22;8517;53.546;10.104;2024-02-21T09:14:37;11.60;99.90
11221;DHT22;8517;53.546;10.104;2024-02-21T09:17:05;11.50;99.90
11221;DHT22;8517;53.546;10.104;2024-02-21T09:19:32;11.50;99.90
11221;DHT22;8517;53.546;10.104;2024-02-21T09:21:59;11.50;99.90
11221;DHT22;8517;53.546;10.104;2024-02-21T09:24:26;11.60;99.90
11221;DHT22;8517;53.546;10.104;2024-02-21T09:26:52;11.50;99.90
11221;DHT22;8517;53.546;10.104;2024-02-21T09:29:19;11.60;99.90
11221;DHT22;8517;53.546;10.104;2024-02-21T09:31:46;11.50;99.90
11221;DHT22;8517;53.546;10.104;2024-02-21T09:34:14;11.50;99.90
11221;DHT22;8517;53.546;10.104;2024-02-21T09:36:41;11.50;99.90
11221;DHT22;8517;53.546;10.104;2024-02-21T09:39:09;11.50;99.90
11221;DHT22;8517;53.546;10.104;2024-02-21T09:41:42;11.50;99.90
11221;DHT22;8517;53.546;10.104;2024-02-21T09:44:13;11.50;99.90
11221;DHT22;8517;53.546;10.104;2024-02-21T09:46:43;11.40;99.90
11221;DHT22;8517;53.546;10.104;2024-02-21T09:49:20;11.40;99.90
11221;DHT22;8517;53.546;10.104;2024-02-21T09:51:50;11.40;99.90
11221;DHT22;8517;53.546;10.104;2024-02-21T09:54:18;11.30;99.90
11221;DHT22;8517;53.546;10.104;2024-02-21T09:56:46;11.30;99.90
11221;DHT22;8517;53.546;10.104;2024-02-21T09:59:13;11.30;99.90
11221;DHT22;8517;53.546;10.104;2024-02-21T10:01:42;11.30;99.90
11221;DHT22;8517;53.546;10.104;2024-02-21T10:04:09;11.40;99.90
11221;DHT22;8517;53.546;10.104;2024-02-21T10:06:54;11.40;99.90
11221;DHT22;8517;53.546;10.104;2024-02-21T10:09:36;11.40;99.90
11221;DHT22;8517;53.546;10.104;2024-02-21T10:12:10;11.40;99.90
11221;DHT22;8517;53.546;10.104;2024-02-21T10:14:37;11.40;99.90
11221;DHT22;8517;53.546;10.104;2024-02-21T10:17:04;11.40;99.90
11221;DHT22;8517;53.546;10.104;2024-02-21T10:19:35;11.40;99.90
11221;DHT22;8517;53.546;10.104;2024-02-21T10:22:04;11.40;99.90
11221;DHT22;8517;53.546;10.104;2024-02-21T10:24:33;11.40;99.90
11221;DHT22;8517;53.546;10.104;2024-02-21T10:27:02;11.40;99.90
11221;DHT22;8517;53.546;10.104;2024-02-21T10:29:29;11.40;99.90
11221;DHT22;8517;53.546;10.104;2024-02-21T10:32:04;11.40;99.90
11221;DHT22;8517;53.546;10.104;2024-02-21T10:34:31;11.40;99.90
11221;DHT22;8517;53.546;10.104;2024-02-21T10:37:00;11.50;99.90
11221;DHT22;8517;53.546;10.104;2024-02-21T10:39:29;11.50;99.90
11221;DHT22;8517;53.546;10.104;2024-02-21T10:41:59;11.40;99.90
11221;DHT22;8517;53.546;10.104;2024-02-21T10:44:28;11.40;99.90
11221;DHT22;8517;53.546;10.104;2024-02-21T10:46:55;11.50;99.90
11221;DHT22;8517;53.546;10.104;2024-02-21T10:49:25;11.50;99.90
11221;DHT22;8517;53.546;10.104;2024-02-21T10:51:55;11.50;99.90
11221;DHT22;8517;53.546;10.104;2024-02-21T10:54:44;11.50;99.90
11221;DHT22;8517;53.546;10.104;2024-02-21T10:57:13;11.60;99.90
11221;DHT22;8517;53.546;10.104;2024-02-21T10:59:40;11.60;99.90
11221;DHT22;8517;53.546;10.104;2024-02-21T11:02:07;11.60;99.90
11221;DHT22;8517;53.546;10.104;2024-02-21T11:04:49;11.60;99.90
11221;DHT22;8517;53.546;10.104;2024-02-21T11:07:18;11.60;99.90
11221;DHT22;8517;53.546;10.104;2024-02-21T11:09:52;11.70;99.90
11221;DHT22;8517;53.546;10.104;2024-02-21T11:12:21;11.60;99.90
11221;DHT22;8517;53.546;10.104;2024-02-21T11:14:48;11.70;99.90
11221;DHT22;8517;53.546;10.104;2024-02-21T11:17:22;11.70;99.90
11221;DHT22;8517;53.546;10.104;2024-02-21T11:19:52;11.70;99.90
11221;DHT22;8517;53.546;10.104;2024-02-21T11:22:19;11.70;99.90
11221;DHT22;8517;53.546;10.104;2024-02-21T11:24:48;11.70;99.90
11221;DHT22;8517;53.546;10.104;2024-02-21T11:27:18;11.70;99.90
11221;DHT22;8517;53.546;10.104;2024-02-21T11:29:46;11.70;99.90
11221;DHT22;8517;53.546;10.104;2024-02-21T11:32:15;11.70;99.90
11221;DHT22;8517;53.546;10.104;2024-02-21T11:34:56;11.70;99.90
11221;DHT22;8517;53.546;10.104;2024-02-21T11:37:27;11.70;99.90
11221;DHT22;8517;53.546;10.104;2024-02-21T11:39:54;11.70;99.90
11221;DHT22;8517;53.546;10.104;2024-02-21T11:42:35;11.80;99.90
11221;DHT22;8517;53.546;10.104;2024-02-21T11:45:09;11.80;99.90
11221;DHT22;8517;53.546;10.104;2024-02-21T11:47:36;11.80;99.90
11221;DHT22;8517;53.546;10.104;2024-02-21T11:50:05;11.80;99.90
11221;DHT22;8517;53.546;10.104;2024-02-21T11:52:32;11.80;99.90
11221;DHT22;8517;53.546;10.104;2024-02-21T11:54:58;11.80;99.90
11221;DHT22;8517;53.546;10.104;2024-02-21T11:57:31;11.80;99.90
11221;DHT22;8517;53.546;10.104;2024-02-21T11:59:58;11.80;99.90
11221;DHT22;8517;53.546;10.104;2024-02-21T12:02:25;11.80;99.90
11221;DHT22;8517;53.546;10.104;2024-02-21T12:04:52;11.80;99.90
11221;DHT22;8517;53.546;10.104;2024-02-21T12:07:21;11.80;99.90
11221;DHT22;8517;53.546;10.104;2024-02-21T12:09:48;11.80;99.90
11221;DHT22;8517;53.546;10.104;2024-02-21T12:12:20;11.80;99.90
11221;DHT22;8517;53.546;10.104;2024-02-21T12:14:54;11.80;99.90
11221;DHT22;8517;53.546;10.104;2024-02-21T12:17:22;11.90;99.90
11221;DHT22;8517;53.546;10.104;2024-02-21T12:19:50;11.90;99.90
11221;DHT22;8517;53.546;10.104;2024-02-21T12:22:18;11.90;99.90
11221;DHT22;8517;53.546;10.104;2024-02-21T12:24:45;11.80;99.90
11221;DHT22;8517;53.546;10.104;2024-02-21T12:27:13;11.80;99.90
11221;DHT22;8517;53.546;10.104;2024-02-21T12:29:40;11.80;99.90
11221;DHT22;8517;53.546;10.104;2024-02-21T12:32:08;11.80;99.90
11221;DHT22;8517;53.546;10.104;2024-02-21T12:34:35;11.80;99.90
11221;DHT22;8517;53.546;10.104;2024-02-21T12:37:03;11.80;99.90
11221;DHT22;8517;53.546;10.104;2024-02-21T12:39:31;11.80;99.90
11221;DHT22;8517;53.546;10.104;2024-02-21T12:41:58;11.80;99.90
11221;DHT22;8517;53.546;10.104;2024-02-21T12:44:26;11.70;99.90
11221;DHT22;8517;53.546;10.104;2024-02-21T12:46:53;11.60;99.90
11221;DHT22;8517;53.546;10.104;2024-02-21T12:49:21;11.60;99.90
11221;DHT22;8517;53.546;10.104;2024-02-21T12:51:49;11.60;99.90
11221;DHT22;8517;53.546;10.104;2024-02-21T12:54:16;11.60;99.90
11221;DHT22;8517;53.546;10.104;2024-02-21T12:56:43;11.60;99.90
11221;DHT22;8517;53.546;10.104;2024-02-21T12:59:10;11.50;99.90
11221;DHT22;8517;53.546;10.104;2024-02-21T13:01:37;11.50;99.90
11221;DHT22;8517;53.546;10.104;2024-02-21T13:04:04;11.50;99.90
11221;DHT22;8517;53.546;10.104;2024-02-21T13:06:32;11.50;99.90
11221;DHT22;8517;53.546;10.104;2024-02-21T13:08:58;11.50;99.90
11221;DHT22;8517;53.546;10.104;2024-02-21T13:11:29;11.50;99.90
11221;DHT22;8517;53.546;10.104;2024-02-21T13:13:56;11.50;99.90
11221;DHT22;8517;53.546;10.104;2024-02-21T13:16:23;11.50;99.90
11221;DHT22;8517;53.546;10.104;2024-02-21T13:18:51;11.50;99.90
11221;DHT22;8517;53.546;10.104;2024-02-21T13:21:18;11.60;99.90
11221;DHT22;8517;53.546;10.104;2024-02-21T13:23:46;11.60;99.90
11221;DHT22;8517;53.546;10.104;2024-02-21T13:26:28;11.60;99.90
11221;DHT22;8517;53.546;10.104;2024-02-21T13:28:55;11.60;99.90
11221;DHT22;8517;53.546;10.104;2024-02-21T13:31:22;11.70;99.90
11221;DHT22;8517;53.546;10.104;2024-02-21T13:33:50;11.70;99.90
11221;DHT22;8517;53.546;10.104;2024-02-21T13:36:17;11.70;99.90
11221;DHT22;8517;53.546;10.104;2024-02-21T13:38:45;11.80;99.90
11221;DHT22;8517;53.546;10.104;2024-02-21T13:41:12;11.80;99.90
11221;DHT22;8517;53.546;10.104;2024-02-21T13:43:39;11.80;99.90
11221;DHT22;8517;53.546;10.104;2024-02-21T13:46:06;11.80;99.90
11221;DHT22;8517;53.546;10.104;2024-02-21T13:48:35;11.90;99.90
11221;DHT22;8517;53.546;10.104;2024-02-21T13:51:02;11.90;99.90
11221;DHT22;8517;53.546;10.104;2024-02-21T13:53:29;12.00;99.90
11221;DHT22;8517;53.546;10.104;2024-02-21T13:55:57;12.00;99.90
11221;DHT22;8517;53.546;10.104;2024-02-21T13:58:24;12.00;99.90
11221;DHT22;8517;53.546;10.104;2024-02-21T14:00:51;12.00;99.90
11221;DHT22;8517;53.546;10.104;2024-02-21T14:03:18;12.00;99.90
11221;DHT22;8517;53.546;10.104;2024-02-21T14:05:45;12.10;99.90
11221;DHT22;8517;53.546;10.104;2024-02-21T14:08:15;12.10;99.90
11221;DHT22;8517;53.546;10.104;2024-02-21T14:10:45;12.10;99.90
11221;DHT22;8517;53.546;10.104;2024-02-21T14:13:14;12.20;99.90
11221;DHT22;8517;53.546;10.104;2024-02-21T14:15:44;12.20;99.90
11221;DHT22;8517;53.546;10.104;2024-02-21T14:18:13;12.20;99.90
11221;DHT22;8517;53.546;10.104;2024-02-21T14:20:42;12.20;99.90
11221;DHT22;8517;53.546;10.104;2024-02-21T14:23:09;12.30;99.90
11221;DHT22;8517;53.546;10.104;2024-02-21T14:25:36;12.30;99.90
11221;DHT22;8517;53.546;10.104;2024-02-21T14:28:05;12.30;99.90
11221;DHT22;8517;53.546;10.104;2024-02-21T14:30:33;12.40;99.90
11221;DHT22;8517;53.546;10.104;2024-02-21T14:33:00;12.40;99.90
11221;DHT22;8517;53.546;10.104;2024-02-21T14:35:27;12.40;99.90
11221;DHT22;8517;53.546;10.104;2024-02-21T14:37:53;12.40;99.90
11221;DHT22;8517;53.546;10.104;2024-02-21T14:40:22;12.50;99.90
11221;DHT22;8517;53.546;10.104;2024-02-21T14:42:49;12.50;99.90
11221;DHT22;8517;53.546;10.104;2024-02-21T14:45:18;12.40;99.90
11221;DHT22;8517;53.546;10.104;2024-02-21T14:47:46;12.50;99.90
11221;DHT22;8517;53.546;10.104;2024-02-21T14:50:13;12.50;99.90
11221;DHT22;8517;53.546;10.104;2024-02-21T14:52:41;12.50;99.90
11221;DHT22;8517;53.546;10.104;2024-02-21T14:55:09;12.50;99.90
11221;DHT22;8517;53.546;10.104;2024-02-21T14:57:38;12.50;99.90
11221;DHT22;8517;53.546;10.104;2024-02-21T15:00:07;12.50;99.90
11221;DHT22;8517;53.546;10.104;2024-02-21T15:02:36;12.50;99.90
11221;DHT22;8517;53.546;10.104;2024-02-21T15:05:05;12.50;99.90
11221;DHT22;8517;53.546;10.104;2024-02-21T15:07:32;12.60;99.90
11221;DHT22;8517;53.546;10.104;2024-02-21T15:09:59;12.60;99.90
11221;DHT22;8517;53.546;10.104;2024-02-21T15:12:26;12.50;99.90
11221;DHT22;8517;53.546;10.104;2024-02-21T15:14:53;12.50;99.90
11221;DHT22;8517;53.546;10.104;2024-02-21T15:17:20;12.50;99.90
11221;DHT22;8517;53.546;10.104;2024-02-21T15:19:46;12.50;99.90
11221;DHT22;8517;53.546;10.104;2024-02-21T15:22:15;12.50;99.90
11221;DHT22;8517;53.546;10.104;2024-02-21T15:24:43;12.50;99.90
11221;DHT22;8517;53.546;10.104;2024-02-21T15:27:12;12.50;99.90
11221;DHT22;8517;53.546;10.104;2024-02-21T15:29:39;12.50;99.90
11221;DHT22;8517;53.546;10.104;2024-02-21T15:32:06;12.40;99.90
11221;DHT22;8517;53.546;10.104;2024-02-21T15:34:33;12.50;99.90
11221;DHT22;8517;53.546;10.104;2024-02-21T15:37:00;12.40;99.90
11221;DHT22;8517;53.546;10.104;2024-02-21T15:39:28;12.50;99.90